Terminal Aerodrome Forecast
Issued by NWS Charleston, WV

Current Version | Previous Version | Graphics & Text | Print | Product List | Glossary On
Versions: 1 2 3 4 5 6 7 8 9 10 11 12 13 14 15 16 17 18 19 20 21 22 23 24
000
FTUS41 KRLX 050500 RRA
TAFEKN
TAF
KEKN 050542Z 0506/0606 32007KT 1 1/2SM -SN OVC020
     FM050700 32008KT 1SM -SN OVC008
     FM051300 34007KT 3/4SM -SN BR OVC003
     FM051500 32005KT 2SM -SN OVC008
     FM052000 32008KT 4SM -SN OVC010
     FM060000 32004KT P6SM BKN020=

USA.gov is the U.S. government's official web portal to all federal, state and local government web resources and services.